Time;durP1;ratioP1;P1;durP2;ratioP2;P2;SDS_P1;SDS_P2;PMS_P1;PMS_P2;Temp;Humidity;BMP_temperature;BMP_pressure;BME280_temperature;BME280_humidity;BME280_pressure;Samples;Min_cycle;Max_cycle;Signal;HPM_P1;HPM_P2
2022/12/18 00:01:39;;;;;;;59.20;20.05;;;;;;;-6.17;100.00;102771.31;5029953;28;20094;-73
2022/12/18 00:04:07;;;;;;;57.50;19.17;;;;;;;-6.21;99.93;102765.88;5027656;28;20032;-73
2022/12/18 00:06:34;;;;;;;54.33;19.15;;;;;;;-6.23;100.00;102768.50;5026948;28;20143;-73
2022/12/18 00:09:01;;;;;;;61.33;19.23;;;;;;;-6.32;100.00;102762.06;5044722;28;20175;-73
2022/12/18 00:11:29;;;;;;;53.75;19.50;;;;;;;-6.33;100.00;102769.09;5045404;28;20064;-73
2022/12/18 00:13:56;;;;;;;49.30;19.60;;;;;;;-6.36;100.00;102782.25;5040443;28;20029;-73
2022/12/18 00:16:24;;;;;;;53.58;19.33;;;;;;;-6.40;99.93;102771.53;5024399;28;20046;-73
2022/12/18 00:18:52;;;;;;;53.13;19.85;;;;;;;-6.46;99.84;102767.84;5040973;28;20037;-73
2022/12/18 00:21:18;;;;;;;51.85;18.55;;;;;;;-6.48;99.85;102761.63;5046508;28;20048;-73
2022/12/18 00:23:44;;;;;;;55.20;19.38;;;;;;;-6.49;99.99;102745.69;5041385;28;20306;-73
2022/12/18 00:26:19;;;;;;;55.92;18.83;;;;;;;-6.50;99.77;102747.44;5025474;28;20021;-73
2022/12/18 00:28:45;;;;;;;55.45;19.55;;;;;;;-6.49;100.00;102740.38;5037326;28;20048;-72
2022/12/18 00:31:13;;;;;;;53.60;18.63;;;;;;;-6.52;100.00;102719.16;5045713;28;20044;-72
2022/12/18 00:33:39;;;;;;;59.60;21.27;;;;;;;-6.58;99.88;102711.00;5029176;28;20064;-73
2022/12/18 00:36:17;;;;;;;61.10;20.92;;;;;;;-6.58;100.00;102725.16;5025147;28;20029;-73
2022/12/18 00:38:43;;;;;;;57.75;18.77;;;;;;;-6.62;100.00;102731.22;5029689;28;20029;-72
2022/12/18 00:41:11;;;;;;;56.55;20.77;;;;;;;-6.63;100.00;102724.13;5040409;28;20055;-72
2022/12/18 00:43:37;;;;;;;63.35;19.63;;;;;;;-6.66;100.00;102717.88;5026518;28;20033;-72
2022/12/18 00:46:03;;;;;;;59.75;21.02;;;;;;;-6.67;100.00;102716.94;5025904;28;20065;-72
2022/12/18 00:48:29;;;;;;;63.15;22.05;;;;;;;-6.75;100.00;102716.75;5024389;28;20362;-72
2022/12/18 00:50:54;;;;;;;51.90;22.17;;;;;;;-6.72;100.00;102723.84;5024534;28;20162;-73
2022/12/18 00:53:20;;;;;;;59.78;19.55;;;;;;;-6.71;100.00;102718.63;5008809;28;20450;-72
2022/12/18 00:55:46;;;;;;;54.10;20.58;;;;;;;-6.71;100.00;102723.03;5026155;28;20505;-73
2022/12/18 00:58:13;;;;;;;47.80;18.85;;;;;;;-6.73;100.00;102719.44;5026379;28;20029;-73
2022/12/18 01:00:39;;;;;;;50.20;20.02;;;;;;;-6.76;100.00;102709.66;5025837;28;20044;-73
2022/12/18 01:03:04;;;;;;;55.85;20.58;;;;;;;-6.76;100.00;102725.53;5025717;28;20365;-73
2022/12/18 01:05:30;;;;;;;50.03;21.15;;;;;;;-6.79;100.00;102725.44;5026810;28;20037;-73
2022/12/18 01:07:56;;;;;;;59.08;20.25;;;;;;;-6.80;100.00;102731.59;5043561;28;20492;-73
2022/12/18 01:10:22;;;;;;;60.60;19.27;;;;;;;-6.83;100.00;102744.72;5045236;28;20087;-73
2022/12/18 01:12:48;;;;;;;57.25;19.08;;;;;;;-6.86;100.00;102741.97;5040766;28;20033;-73
2022/12/18 01:15:14;;;;;;;51.42;19.67;;;;;;;-6.85;100.00;102745.56;5025215;28;20047;-73
2022/12/18 01:17:40;;;;;;;54.60;19.60;;;;;;;-6.88;100.00;102746.34;5024272;28;20579;-73
2022/12/18 01:20:06;;;;;;;50.65;19.80;;;;;;;-6.87;100.00;102744.59;5026172;28;20037;-73
2022/12/18 01:22:33;;;;;;;58.92;19.38;;;;;;;-6.90;100.00;102747.13;5026519;28;20029;-73
2022/12/18 01:24:59;;;;;;;53.90;18.60;;;;;;;-6.89;100.00;102756.88;5028748;28;20025;-72
2022/12/18 01:27:24;;;;;;;62.88;20.30;;;;;;;-6.89;100.00;102754.25;5044180;28;20090;-73
2022/12/18 01:29:51;;;;;;;50.05;19.15;;;;;;;-6.91;100.00;102755.94;5027918;28;20030;-73
2022/12/18 01:32:19;;;;;;;47.22;17.60;;;;;;;-6.94;100.00;102751.47;5029094;28;20036;-73
2022/12/18 01:34:44;;;;;;;47.20;18.45;;;;;;;-6.97;100.00;102743.41;5028239;28;20124;-73
2022/12/18 01:37:10;;;;;;;66.47;20.33;;;;;;;-6.99;100.00;102737.19;5028180;28;20132;-73
2022/12/18 01:39:36;;;;;;;48.80;19.42;;;;;;;-7.01;100.00;102736.25;5029327;28;20477;-73
2022/12/18 01:42:14;;;;;;;57.33;19.15;;;;;;;-7.00;100.00;102743.31;5041813;28;20048;-73
2022/12/18 01:45:04;;;;;;;56.55;19.05;;;;;;;-7.02;100.00;102743.28;5039362;28;20033;-73
2022/12/18 01:47:41;;;;;;;52.50;17.80;;;;;;;-7.04;100.00;102729.13;5042843;28;20121;-73
2022/12/18 01:50:31;;;;;;;43.03;16.92;;;;;;;-7.04;100.00;102737.06;5029193;28;20037;-72
2022/12/18 01:53:03;;;;;;;54.10;19.55;;;;;;;-7.04;100.00;102730.84;5028681;28;20038;-73
2022/12/18 01:55:31;;;;;;;45.97;17.55;;;;;;;-7.06;100.00;102735.22;5028962;28;20203;-73
2022/12/18 01:57:59;;;;;;;53.50;19.08;;;;;;;-7.07;100.00;102736.97;5027993;28;20044;-72
2022/12/18 02:00:26;;;;;;;48.30;20.75;;;;;;;-7.12;100.00;102732.38;5028747;28;20041;-73
2022/12/18 02:02:51;;;;;;;51.53;19.08;;;;;;;-7.12;100.00;102732.38;5027290;28;20033;-73
2022/12/18 02:05:51;;;;;;;45.28;19.75;;;;;;;-7.17;100.00;102715.50;5029565;28;20025;-72
2022/12/18 02:08:23;;;;;;;50.53;18.00;;;;;;;-7.14;100.00;102718.19;5011502;28;20041;-73
2022/12/18 02:11:00;;;;;;;56.75;20.50;;;;;;;-7.15;100.00;102727.88;5029413;28;20033;-72
2022/12/18 02:13:50;;;;;;;57.30;19.50;;;;;;;-7.17;100.00;102731.34;5037818;28;20041;-72
2022/12/18 02:16:27;;;;;;;52.15;18.75;;;;;;;-7.20;100.00;102730.38;5026436;28;20049;-73
2022/12/18 02:18:59;;;;;;;47.53;17.77;;;;;;;-7.23;100.00;102724.09;5028951;28;20041;-72
2022/12/18 02:21:42;;;;;;;48.95;17.15;;;;;;;-7.21;100.00;102725.06;5028350;28;20041;-73
2022/12/18 02:24:50;;;;;;;45.50;17.48;;;;;;;-7.23;100.00;102725.03;5027924;28;20570;-73
2022/12/18 02:27:15;;;;;;;47.40;19.45;;;;;;;-7.24;100.00;102724.97;5020461;28;20052;-73
2022/12/18 02:29:51;;;;;;;48.25;18.25;;;;;;;-7.25;100.00;102729.34;5029224;28;20025;-73
2022/12/18 02:32:22;;;;;;;40.55;17.27;;;;;;;-7.25;100.00;102723.19;5026507;28;20029;-73
2022/12/18 02:34:50;;;;;;;52.25;18.10;;;;;;;-7.29;100.00;102718.63;5026884;28;20508;-74
2022/12/18 02:37:19;;;;;;;48.75;18.23;;;;;;;-7.32;100.00;102721.19;5010592;28;20554;-73
2022/12/18 02:39:49;;;;;;;44.78;16.73;;;;;;;-7.34;100.00;102717.59;5026948;28;20381;-73
2022/12/18 02:42:17;;;;;;;40.25;17.02;;;;;;;-7.36;100.00;102722.84;5040739;28;20032;-72
2022/12/18 02:44:51;;;;;;;44.58;18.38;;;;;;;-7.38;100.00;102719.25;5039026;28;20037;-72
2022/12/18 02:47:23;;;;;;;51.75;17.95;;;;;;;-7.39;100.00;102716.56;5026230;28;20032;-72
2022/12/18 02:50:02;;;;;;;45.58;17.77;;;;;;;-7.40;100.00;102705.09;5026615;28;20562;-72
2022/12/18 02:52:42;;;;;;;45.15;16.73;;;;;;;-7.42;100.00;102698.84;5027330;28;20493;-72
2022/12/18 02:55:30;;;;;;;43.13;17.98;;;;;;;-7.43;100.00;102697.06;5026584;28;20037;-73
2022/12/18 02:58:09;;;;;;;38.35;16.38;;;;;;;-7.48;100.00;102698.66;5031676;28;20033;-73
2022/12/18 03:00:43;;;;;;;45.33;16.48;;;;;;;-7.48;100.00;102706.59;5027377;28;20539;-71
2022/12/18 03:03:33;;;;;;;46.60;17.90;;;;;;;-7.48;100.00;102703.97;5035774;28;20041;-73
2022/12/18 03:06:09;;;;;;;43.50;17.70;;;;;;;-7.50;100.00;102698.63;5026725;28;20029;-72
2022/12/18 03:08:46;;;;;;;46.15;17.10;;;;;;;-7.53;100.00;102687.97;5026812;28;20377;-72
2022/12/18 03:11:13;;;;;;;35.45;14.32;;;;;;;-7.51;100.00;102690.63;5031711;28;20040;-72
2022/12/18 03:13:48;;;;;;;42.35;16.88;;;;;;;-7.53;100.00;102681.78;5042308;28;20473;-72
2022/12/18 03:16:27;;;;;;;39.22;16.27;;;;;;;-7.55;100.00;102684.38;5045352;28;20052;-71
2022/12/18 03:19:13;;;;;;;41.85;16.27;;;;;;;-7.56;100.00;102676.38;5029226;28;20112;-72
2022/12/18 03:21:47;;;;;;;38.75;16.45;;;;;;;-7.57;100.00;102679.88;5023459;28;20033;-72
2022/12/18 03:24:16;;;;;;;40.83;15.05;;;;;;;-7.59;100.00;102679.84;5026671;28;20429;-73
2022/12/18 03:26:46;;;;;;;43.45;15.43;;;;;;;-7.62;100.00;102689.41;5035518;28;20369;-72
2022/12/18 03:29:19;;;;;;;37.33;15.35;;;;;;;-7.63;100.00;102683.25;5035006;28;20029;-72
2022/12/18 03:31:51;;;;;;;38.42;14.38;;;;;;;-7.64;100.00;102685.84;5044641;28;20036;-72
2022/12/18 03:34:23;;;;;;;33.97;13.77;;;;;;;-7.65;100.00;102686.66;5028057;28;20119;-72
2022/12/18 03:36:48;;;;;;;39.85;16.20;;;;;;;-7.66;100.00;102690.16;5026158;28;20548;-73
2022/12/18 03:39:14;;;;;;;39.33;16.25;;;;;;;-7.71;100.00;102690.91;5026173;28;20108;-72
2022/12/18 03:41:45;;;;;;;32.25;14.90;;;;;;;-7.71;100.00;102690.00;5034743;28;20499;-73
2022/12/18 03:44:36;;;;;;;40.38;14.57;;;;;;;-7.73;100.00;102691.72;5029265;28;20037;-73
2022/12/18 03:47:09;;;;;;;40.55;15.82;;;;;;;-7.76;99.94;102676.66;5024316;28;20033;-73
2022/12/18 03:49:42;;;;;;;45.28;15.80;;;;;;;-7.78;100.00;102678.38;5026425;28;20065;-73
2022/12/18 03:52:16;;;;;;;44.17;17.42;;;;;;;-7.81;99.90;102666.81;5026368;28;20497;-73
2022/12/18 03:54:42;;;;;;;;;;;;;;;-7.78;99.85;102664.28;5026374;28;20393;-73
2022/12/18 03:57:19;;;;;;;36.17;13.90;;;;;;;-7.81;99.79;102664.16;5025685;28;19935;-73
2022/12/18 03:59:50;;;;;;;37.45;14.32;;;;;;;-7.85;99.57;102657.88;5009939;28;20459;-73
2022/12/18 04:02:20;;;;;;;27.08;13.57;;;;;;;-7.87;99.90;102646.38;5024999;28;20059;-73
2022/12/18 04:04:50;;;;;;;36.60;14.25;;;;;;;-7.87;99.88;102649.03;5027121;28;20542;-73
2022/12/18 04:07:17;;;;;;;39.47;14.32;;;;;;;-7.88;99.89;102639.31;5041145;28;20144;-73
2022/12/18 04:09:45;;;;;;;39.78;15.05;;;;;;;-7.90;100.00;102640.97;5025724;28;20117;-73
2022/12/18 04:12:12;;;;;;;39.70;14.57;;;;;;;-7.92;100.00;102629.50;5031735;28;20481;-73
2022/12/18 04:14:37;;;;;;;30.38;13.95;;;;;;;-7.92;100.00;102640.06;5034524;28;20034;-73
2022/12/18 04:17:06;;;;;;;36.95;15.77;;;;;;;-7.93;99.87;102632.06;5024166;28;20377;-72
2022/12/18 04:19:32;;;;;;;41.53;15.60;;;;;;;-7.94;99.71;102631.16;5044779;28;20115;-73
2022/12/18 04:21:59;;;;;;;32.97;13.18;;;;;;;-8.01;99.77;102618.63;5033305;28;20063;-73
2022/12/18 04:24:25;;;;;;;31.83;13.43;;;;;;;-7.97;99.83;102624.06;5025577;28;20029;-73
2022/12/18 04:27:01;;;;;;;37.42;13.35;;;;;;;-7.98;99.91;102616.97;5024331;28;20030;-73
2022/12/18 04:29:32;;;;;;;39.78;14.35;;;;;;;-7.97;99.93;102629.34;5024617;28;20037;-73
2022/12/18 04:31:58;;;;;;;31.92;11.90;;;;;;;-7.99;99.82;102633.66;5039568;28;20481;-72
2022/12/18 04:34:25;;;;;;;28.67;14.15;;;;;;;-7.98;99.67;102637.19;5041696;28;20033;-72
2022/12/18 04:36:52;;;;;;;27.75;12.93;;;;;;;-8.04;99.69;102639.66;5029283;28;20044;-73
2022/12/18 04:39:19;;;;;;;32.83;13.40;;;;;;;-8.02;99.48;102646.78;5032433;28;20029;-72
2022/12/18 04:41:45;;;;;;;31.73;13.15;;;;;;;-8.06;99.39;102644.88;5044117;28;20040;-72
2022/12/18 04:44:12;;;;;;;29.88;13.93;;;;;;;-8.06;99.05;102649.28;5022725;28;20477;-72
2022/12/18 04:46:37;;;;;;;27.55;11.82;;;;;;;-8.07;99.61;102647.47;5024460;28;20107;-72
2022/12/18 04:49:02;;;;;;;32.38;13.38;;;;;;;-8.12;99.65;102649.06;5025887;28;20037;-73
2022/12/18 04:51:28;;;;;;;36.97;14.57;;;;;;;-8.14;99.42;102658.69;5025740;28;20044;-72
2022/12/18 04:53:53;;;;;;;29.83;12.63;;;;;;;-8.14;99.27;102672.78;5024970;28;20038;-72
2022/12/18 04:56:19;;;;;;;35.38;12.63;;;;;;;-8.15;99.12;102672.72;5024230;28;20051;-72
2022/12/18 04:58:44;;;;;;;34.38;11.30;;;;;;;-8.18;99.06;102672.63;5026217;28;20041;-72
2022/12/18 05:01:11;;;;;;;32.00;14.23;;;;;;;-8.19;99.27;102673.47;5028409;28;20418;-72
2022/12/18 05:03:37;;;;;;;34.78;13.02;;;;;;;-8.19;99.38;102669.09;5027103;28;20361;-73
2022/12/18 05:06:04;;;;;;;28.75;12.20;;;;;;;-8.20;99.46;102666.41;5027569;28;20091;-73
2022/12/18 05:08:29;;;;;;;30.33;12.40;;;;;;;-8.21;99.44;102673.41;5029061;28;20385;-73
2022/12/18 05:11:09;;;;;;;32.97;12.23;;;;;;;-8.20;99.63;102676.97;5032579;28;20070;-73
2022/12/18 05:13:36;;;;;;;32.65;11.50;;;;;;;-8.26;99.35;102672.34;5038056;28;20484;-73
2022/12/18 05:16:02;;;;;;;27.73;12.48;;;;;;;-8.29;99.34;102680.19;5011420;28;1031607;-73
2022/12/18 05:18:28;;;;;;;30.38;13.05;;;;;;;-8.32;98.97;102682.72;5036620;28;20025;-73
2022/12/18 05:20:54;;;;;;;29.33;12.18;;;;;;;-8.37;99.04;102674.66;5030580;28;20033;-73
2022/12/18 05:23:21;;;;;;;26.83;11.60;;;;;;;-8.38;98.99;102674.63;5043004;28;20029;-73
2022/12/18 05:25:58;;;;;;;25.35;12.05;;;;;;;-8.42;98.76;102673.63;5048462;28;20079;-73
2022/12/18 05:28:25;;;;;;;29.67;11.45;;;;;;;-8.44;98.84;102671.75;5041964;28;20033;-73
2022/12/18 05:30:55;;;;;;;29.95;10.95;;;;;;;-8.48;98.70;102671.66;5029598;28;20037;-73
2022/12/18 05:33:22;;;;;;;25.92;10.95;;;;;;;-8.49;98.79;102664.59;5035730;28;20032;-73
2022/12/18 05:35:52;;;;;;;30.30;12.13;;;;;;;-8.52;98.76;102675.03;5029753;28;20052;-73
2022/12/18 05:38:18;;;;;;;28.08;12.43;;;;;;;-8.54;98.59;102674.06;5029892;28;20311;-73
2022/12/18 05:40:44;;;;;;;29.30;12.02;;;;;;;-8.55;98.66;102668.75;5031174;28;20037;-73
2022/12/18 05:43:10;;;;;;;24.52;10.85;;;;;;;-8.55;99.05;102663.47;5040916;28;20036;-73
2022/12/18 05:45:39;;;;;;;28.63;12.25;;;;;;;-8.57;98.55;102660.78;5028368;28;20061;-73
2022/12/18 05:48:06;;;;;;;29.00;11.10;;;;;;;-8.61;98.65;102653.59;5028952;28;20628;-72
2022/12/18 05:50:36;;;;;;;35.70;12.02;;;;;;;-8.62;99.00;102650.94;5029225;28;20033;-73
2022/12/18 05:53:02;;;;;;;30.73;11.43;;;;;;;-8.66;98.76;102649.91;5029787;28;20025;-73
2022/12/18 05:55:28;;;;;;;27.63;11.75;;;;;;;-8.65;98.85;102649.06;5029248;28;20041;-72
2022/12/18 05:57:53;;;;;;;30.00;12.05;;;;;;;-8.65;98.82;102650.81;5028483;28;20033;-72
2022/12/18 06:00:19;;;;;;;30.52;11.75;;;;;;;-8.64;98.73;102647.31;5027050;28;20061;-73
2022/12/18 06:02:47;;;;;;;28.58;10.23;;;;;;;-8.65;98.69;102651.72;5028396;28;20116;-73
2022/12/18 06:05:13;;;;;;;25.00;10.63;;;;;;;-8.67;98.59;102648.13;5028736;28;20042;-72
2022/12/18 06:07:38;;;;;;;27.17;10.60;;;;;;;-8.69;98.59;102638.34;5029369;28;20098;-73
2022/12/18 06:10:04;;;;;;;30.15;12.75;;;;;;;-8.70;98.45;102634.81;5028864;28;20036;-72
2022/12/18 06:12:30;;;;;;;33.50;13.18;;;;;;;-8.70;98.66;102639.19;5037503;28;20091;-73
2022/12/18 06:14:55;;;;;;;28.45;10.57;;;;;;;-8.72;98.56;102636.50;5027387;28;20033;-73
2022/12/18 06:17:20;;;;;;;23.02;11.20;;;;;;;-8.73;98.48;102640.88;5028202;28;20569;-73
2022/12/18 06:19:46;;;;;;;27.92;10.93;;;;;;;-8.74;98.46;102638.19;5028858;28;20511;-73
2022/12/18 06:22:11;;;;;;;26.42;11.05;;;;;;;-8.75;98.20;102644.31;5028932;28;20099;-72
2022/12/18 06:24:36;;;;;;;28.40;11.10;;;;;;;-8.75;98.48;102653.13;5027543;28;20035;-72
2022/12/18 06:27:02;;;;;;;25.73;10.32;;;;;;;-8.78;98.54;102647.72;5028432;28;20029;-72
2022/12/18 06:29:27;;;;;;;24.85;10.50;;;;;;;-8.77;98.73;102659.16;5035228;28;20025;-72
2022/12/18 06:31:52;;;;;;;28.20;9.82;;;;;;;-8.75;98.86;102657.50;5047540;28;20045;-73
2022/12/18 06:34:18;;;;;;;26.75;10.13;;;;;;;-8.75;98.84;102645.22;5028896;28;20464;-73
2022/12/18 06:36:43;;;;;;;24.98;10.95;;;;;;;-8.79;98.99;102642.41;5044018;28;20033;-72
2022/12/18 06:39:08;;;;;;;26.10;11.30;;;;;;;-8.78;98.92;102652.09;5034890;28;20051;-72
2022/12/18 06:41:34;;;;;;;30.85;11.10;;;;;;;-8.79;98.87;102643.31;5039009;28;20141;-72
2022/12/18 06:43:59;;;;;;;25.15;11.38;;;;;;;-8.82;98.83;102631.75;5037187;28;20119;-72
2022/12/18 06:46:25;;;;;;;26.02;11.10;;;;;;;-8.84;98.42;102628.16;5027809;28;20431;-72
2022/12/18 06:48:50;;;;;;;26.00;10.68;;;;;;;-8.87;98.22;102633.31;5027101;28;20374;-73
2022/12/18 06:51:18;;;;;;;23.70;11.60;;;;;;;-8.90;98.39;102630.59;5026724;28;20473;-72
2022/12/18 06:53:43;;;;;;;22.75;10.60;;;;;;;-8.92;98.48;102629.63;5028133;28;20043;-73
2022/12/18 06:56:09;;;;;;;25.02;10.07;;;;;;;-8.93;98.63;102626.09;5028085;28;20121;-72
2022/12/18 06:58:34;;;;;;;23.83;10.95;;;;;;;-8.97;98.35;102616.28;5028265;28;20737;-72
2022/12/18 07:01:04;;;;;;;27.50;10.20;;;;;;;-8.96;98.44;102623.34;5026718;28;20489;-72
2022/12/18 07:03:30;;;;;;;26.15;10.68;;;;;;;-8.99;98.65;102625.88;5039138;28;20047;-72
2022/12/18 07:05:56;;;;;;;28.17;9.93;;;;;;;-9.03;98.50;102621.34;5047961;28;20044;-72
2022/12/18 07:08:21;;;;;;;26.73;9.88;;;;;;;-9.03;98.40;102623.97;5046530;28;20021;-73
2022/12/18 07:10:48;;;;;;;28.75;10.75;;;;;;;-9.02;98.45;102621.38;5047363;28;20090;-73
2022/12/18 07:13:17;;;;;;;33.15;11.18;;;;;;;-9.01;98.83;102615.25;5038315;28;20431;-73
2022/12/18 07:15:43;;;;;;;28.55;10.77;;;;;;;-8.98;99.19;102603.06;5036281;28;20448;-73
2022/12/18 07:18:09;;;;;;;22.85;10.30;;;;;;;-8.92;99.47;102605.91;5034098;28;20033;-73
2022/12/18 07:20:34;;;;;;;24.52;10.77;;;;;;;-8.92;99.59;102597.97;5030471;28;20111;-72
2022/12/18 07:23:02;;;;;;;25.50;10.93;;;;;;;-8.85;99.96;102595.63;5042056;28;20036;-73
2022/12/18 07:25:28;;;;;;;27.50;11.98;;;;;;;-8.84;100.00;102571.03;5028879;28;20029;-72
2022/12/18 07:27:54;;;;;;;27.90;11.85;;;;;;;-8.81;100.00;102557.97;5029087;28;20025;-73
2022/12/18 07:30:19;;;;;;;33.53;12.70;;;;;;;-8.73;100.00;102566.13;5036354;28;20718;-73
2022/12/18 07:32:44;;;;;;;30.55;12.30;;;;;;;-8.69;100.00;102568.03;5030966;28;20488;-72
2022/12/18 07:35:10;;;;;;;26.65;11.77;;;;;;;-8.66;100.00;102564.63;5045776;28;20492;-72
2022/12/18 07:37:35;;;;;;;28.55;12.65;;;;;;;-8.63;100.00;102562.94;5040171;28;20547;-73
2022/12/18 07:40:00;;;;;;;29.88;11.27;;;;;;;-8.58;100.00;102564.03;5037578;28;20480;-72
2022/12/18 07:42:32;;;;;;;23.40;11.68;;;;;;;-8.54;100.00;102560.63;5026457;28;20516;-72
2022/12/18 07:45:01;;;;;;;30.17;13.35;;;;;;;-8.54;100.00;102549.19;5027016;28;20571;-72
2022/12/18 07:47:28;;;;;;;33.38;13.60;;;;;;;-8.46;100.00;102544.16;5027268;28;20029;-72
2022/12/18 07:49:53;;;;;;;35.08;14.48;;;;;;;-8.41;100.00;102535.53;5027537;28;20440;-72
2022/12/18 07:52:18;;;;;;;31.65;12.30;;;;;;;-8.36;100.00;102530.41;5027245;28;20025;-72
2022/12/18 07:54:45;;;;;;;30.92;11.63;;;;;;;-8.31;100.00;102526.13;5025712;28;20125;-72
2022/12/18 07:57:10;;;;;;;31.13;12.23;;;;;;;-8.28;100.00;102515.69;5026946;28;20477;-72
2022/12/18 07:59:36;;;;;;;30.83;13.52;;;;;;;-8.21;100.00;102517.66;5027067;28;20112;-72
2022/12/18 08:02:02;;;;;;;33.92;14.20;;;;;;;-8.14;100.00;102517.00;5025532;28;20429;-72
2022/12/18 08:04:27;;;;;;;32.30;14.63;;;;;;;-8.06;100.00;102528.72;5027930;28;20041;-72
2022/12/18 08:06:53;;;;;;;25.50;12.70;;;;;;;-7.99;100.00;102527.16;5043800;28;20064;-73
2022/12/18 08:09:18;;;;;;;33.67;13.52;;;;;;;-7.93;100.00;102535.25;5045603;28;20059;-73
2022/12/18 08:11:44;;;;;;;30.65;13.35;;;;;;;-7.87;100.00;102546.00;5045206;28;20116;-73
2022/12/18 08:14:09;;;;;;;30.73;13.40;;;;;;;-7.84;100.00;102530.25;5041688;28;20607;-73
2022/12/18 08:16:35;;;;;;;32.95;14.23;;;;;;;-7.79;100.00;102520.69;5025455;28;20135;-73
2022/12/18 08:19:00;;;;;;;35.45;14.48;;;;;;;-7.70;100.00;102531.53;5026804;28;20535;-73
2022/12/18 08:21:28;;;;;;;34.95;14.38;;;;;;;-7.64;100.00;102538.78;5035237;28;20040;-74
2022/12/18 08:23:56;;;;;;;32.15;13.80;;;;;;;-7.56;100.00;102544.25;5047500;28;20484;-73
2022/12/18 08:26:23;;;;;;;33.33;15.45;;;;;;;-7.49;100.00;102546.25;5041556;28;20124;-74
2022/12/18 08:28:49;;;;;;;31.85;12.95;;;;;;;-7.44;100.00;102541.97;5035476;28;20037;-73
2022/12/18 08:31:14;;;;;;;34.15;15.18;;;;;;;-7.37;100.00;102537.75;5026419;28;20049;-74
2022/12/18 08:33:40;;;;;;;30.45;15.07;;;;;;;-7.29;100.00;102538.88;5045288;28;20056;-72
2022/12/18 08:36:06;;;;;;;28.70;14.10;;;;;;;-7.23;100.00;102541.69;5039141;28;20037;-72
2022/12/18 08:38:34;;;;;;;36.55;15.73;;;;;;;-7.20;100.00;102529.44;5033243;28;20030;-73
2022/12/18 08:41:01;;;;;;;36.28;13.77;;;;;;;-7.12;100.00;102536.69;5034879;28;20064;-73
2022/12/18 08:46:11;;;;;;;32.45;14.73;;;;;;;-7.02;100.00;102518.47;5030064;28;20060;-73
2022/12/18 08:48:37;;;;;;;36.05;15.93;;;;;;;-6.99;100.00;102515.03;5029890;28;20068;-73
2022/12/18 08:51:02;;;;;;;49.65;16.88;;;;;;;-6.93;100.00;102505.50;5029038;28;20037;-73
2022/12/18 08:53:28;;;;;;;38.72;14.93;;;;;;;-6.85;100.00;102500.41;5030277;28;20033;-74
2022/12/18 08:55:53;;;;;;;38.45;15.75;;;;;;;-6.79;100.00;102504.94;5030891;28;20025;-73
2022/12/18 08:58:19;;;;;;;34.05;14.80;;;;;;;-6.70;100.00;102508.72;5036179;28;20033;-73
2022/12/18 09:00:45;;;;;;;36.00;14.85;;;;;;;-6.64;100.00;102502.69;5042292;28;20041;-74
2022/12/18 09:03:18;;;;;;;37.05;13.25;;;;;;;-6.57;100.00;102509.94;5029555;28;20056;-74
2022/12/18 09:05:45;;;;;;;36.50;15.43;;;;;;;-6.47;100.00;102506.63;5030292;28;20124;-74
2022/12/18 09:08:11;;;;;;;38.00;15.18;;;;;;;-6.38;100.00;102513.03;5030117;28;20461;-74
2022/12/18 09:10:44;;;;;;;36.53;15.23;;;;;;;-6.32;100.00;102519.34;5029426;28;20116;-74
2022/12/18 09:13:11;;;;;;;50.35;16.05;;;;;;;-6.24;100.00;102525.72;5035893;28;20033;-74
2022/12/18 09:15:45;;;;;;;33.97;16.05;;;;;;;-6.17;100.00;102521.44;5031090;28;20064;-74
2022/12/18 09:18:11;;;;;;;35.55;14.98;;;;;;;-6.11;100.00;102524.22;5028306;28;20507;-73
2022/12/18 09:20:36;;;;;;;38.28;15.55;;;;;;;-6.04;100.00;102528.81;5028980;28;20079;-74
2022/12/18 09:23:02;;;;;;;31.33;13.82;;;;;;;-5.99;100.00;102540.41;5030204;28;20068;-74
2022/12/18 09:25:32;;;;;;;34.13;15.43;;;;;;;-5.90;100.00;102545.88;5030687;28;20037;-74
2022/12/18 09:28:01;;;;;;;36.90;16.98;;;;;;;-5.83;100.00;102535.41;5030245;28;20038;-74
2022/12/18 09:30:27;;;;;;;38.13;15.48;;;;;;;-5.77;100.00;102524.97;5029219;28;20049;-74
2022/12/18 09:32:55;;;;;;;34.55;14.35;;;;;;;-5.73;100.00;102521.53;5028314;28;20392;-74
2022/12/18 09:35:21;;;;;;;37.30;16.13;;;;;;;-5.65;100.00;102519.91;5029679;28;20038;-74
2022/12/18 09:37:46;;;;;;;33.83;16.17;;;;;;;-5.58;100.00;102510.34;5029752;28;20124;-74
2022/12/18 09:40:22;;;;;;;32.50;14.30;;;;;;;-5.53;100.00;102504.25;5043659;28;20120;-74
2022/12/18 09:43:03;;;;;;;34.55;15.25;;;;;;;-5.48;100.00;102497.28;5042789;28;20079;-73
2022/12/18 09:45:38;;;;;;;31.98;14.05;;;;;;;-5.44;100.00;102488.53;5041545;28;20392;-74
2022/12/18 09:48:05;;;;;;;31.70;15.13;;;;;;;-5.36;100.00;102491.34;5040378;28;20051;-73
2022/12/18 09:50:38;;;;;;;37.10;13.90;;;;;;;-5.28;100.00;102487.06;5029378;28;20559;-74
2022/12/18 09:53:15;;;;;;;34.83;14.85;;;;;;;-5.22;100.00;102476.59;5029861;28;20099;-74
2022/12/18 09:55:46;;;;;;;28.08;15.00;;;;;;;-5.15;100.00;102465.22;5029477;28;20076;-74
2022/12/18 09:58:30;;;;;;;36.25;14.50;;;;;;;-5.08;100.00;102471.53;5028070;28;20100;-74
2022/12/18 10:00:56;;;;;;;36.03;15.60;;;;;;;-5.01;100.00;102480.50;5028841;28;20091;-74
2022/12/18 10:03:22;;;;;;;32.78;14.68;;;;;;;-4.94;99.87;102496.56;5028538;28;20057;-74
2022/12/18 10:06:08;;;;;;;31.80;14.38;;;;;;;-4.86;99.94;102483.41;5034447;28;20503;-74
2022/12/18 10:08:49;;;;;;;33.92;16.77;;;;;;;-4.80;99.17;102482.59;5047683;28;20504;-74
2022/12/18 10:11:21;;;;;;;40.10;16.35;;;;;;;-4.72;100.00;102479.22;5047359;28;20547;-74
2022/12/18 10:13:56;;;;;;;30.65;14.05;;;;;;;-4.65;99.24;102477.56;5037133;28;20045;-75
2022/12/18 10:16:31;;;;;;;37.15;14.50;;;;;;;-4.56;99.82;102485.69;5027744;28;20061;-74
2022/12/18 10:19:15;;;;;;;37.58;17.42;;;;;;;-4.48;99.58;102489.34;5029075;28;20041;-75
2022/12/18 10:22:29;;;;;;;34.30;15.75;;;;;;;-4.42;99.64;102484.16;5029100;28;20036;-74
2022/12/18 10:25:31;;;;;;;36.65;15.35;;;;;;;-4.30;99.91;102475.44;5029640;28;20041;-74
2022/12/18 10:28:17;;;;;;;29.23;13.55;;;;;;;-4.22;99.22;102459.63;5013833;28;20411;-74
2022/12/18 10:30:44;;;;;;;35.00;14.95;;;;;;;-4.17;98.55;102466.78;5027638;28;20379;-74
2022/12/18 10:33:35;;;;;;;29.02;15.30;;;;;;;-4.09;98.95;102458.06;5028186;28;20124;-74
2022/12/18 10:36:01;;;;;;;33.85;14.25;;;;;;;-4.04;98.48;102451.91;5027557;28;20111;-74
2022/12/18 10:38:31;;;;;;;35.03;15.07;;;;;;;-3.98;98.98;102446.69;5028993;28;20029;-74
2022/12/18 10:41:00;;;;;;;34.53;15.07;;;;;;;-3.92;98.33;102448.50;5029873;28;20045;-75
2022/12/18 10:43:30;;;;;;;38.92;16.17;;;;;;;-3.87;98.58;102430.84;5027968;28;20121;-74
2022/12/18 10:46:22;;;;;;;35.95;16.80;;;;;;;-3.81;97.99;102430.06;5027919;28;20428;-74
2022/12/18 10:48:50;;;;;;;30.58;14.00;;;;;;;-3.75;98.20;102424.81;5031546;28;20049;-74
2022/12/18 10:51:24;;;;;;;27.83;13.43;;;;;;;-3.69;97.88;102423.09;5028699;28;20029;-74
2022/12/18 10:54:02;;;;;;;38.45;15.13;;;;;;;-3.65;97.16;102419.59;5027160;28;20033;-74
2022/12/18 10:56:29;;;;;;;35.45;14.52;;;;;;;-3.62;97.00;102417.00;5026611;28;20377;-74
2022/12/18 10:59:01;;;;;;;29.40;14.38;;;;;;;-3.56;97.54;102408.19;5038032;28;20335;-75
2022/12/18 11:01:30;;;;;;;36.08;16.70;;;;;;;-3.50;97.98;102402.91;5028200;28;20041;-75
2022/12/18 11:03:56;;;;;;;37.67;15.70;;;;;;;-3.45;97.32;102398.56;5027101;28;20036;-74
2022/12/18 11:06:24;;;;;;;29.33;14.02;;;;;;;-3.40;96.99;102390.63;5027637;28;20030;-74
2022/12/18 11:09:01;;;;;;;36.00;15.00;;;;;;;-3.37;97.11;102404.84;5028221;28;20423;-74
2022/12/18 11:11:28;;;;;;;29.42;14.27;;;;;;;-3.33;96.09;102406.66;5027205;28;20033;-75
2022/12/18 11:14:21;;;;;;;32.25;13.75;;;;;;;-3.29;nan;102401.38;5028193;28;20033;-75
2022/12/18 11:16:48;;;;;;;30.27;14.38;;;;;;;-3.24;96.88;102405.84;5044521;28;20140;-75
2022/12/18 11:19:28;;;;;;;27.05;12.88;;;;;;;-3.18;96.61;102402.34;5029679;28;20056;-75